Skip Navigation Links
NOAA logo - Click to go to the NOAA homepage
NOAA's National Weather Service
Alaska Aviation Weather Unit
  NWS logo - Click to go to the NWS homepage
Left Navbar Graphic     17 AKDT = 01 GMT

   
NOAA is celebrating 200 years of science, service, and stewardship. Visit the NOAA 200th celebration Web site to learn more.
USA.gov is the U.S. Government's official Web portal to all Federal, state and local government Web resources and services.
Facebook
NWS on Facebook

Important Change Regarding the AAWU Web Presence

 

Over the last several months, the AAWU has been working to navigate its webpages to a nationally supported server. Security, as well as other needs, have necessitated the change.  In the process, we have made an effort to enhance the functionality of our website, as well as some of our products. As of June 27, 2017, aawu.arh.noaa.gov will be discontinued. The new AAWU web address is weather.gov/aawu. It is now live and will run in-parallel with the old site until it is discontinued. Please send any feedback or questions regarding the new webpages to nws.ar.aawu.webauthors@noaa.gov.  Thank you for your patience during this time of transition.
AAWU Home :: Display TAF Add Bookmark
TAF PAUN 252334Z 2600/2624 31013KT P6SM BKN070
     FM260900 11005KT P6SM BKN100
     FM262000 12010KT P6SM VCSH SCT050 BKN120=

METAR PAUN 251956Z AUTO 10007KT 10SM CLR 16/07 A2998 RMK AO2 SLP157 T01560072= METAR PAUN 252056Z AUTO 00000KT 10SM CLR 17/07 A2997 RMK AO2 SLP152 T01670072 56020= METAR PAUN 252156Z AUTO 26006KT 10SM CLR 17/07 A2994 RMK AO2 SLP143 T01670072= METAR PAUN 252256Z AUTO 31013KT 10SM BKN065 16/08 A2991 RMK AO2 SLP133 T01610083= METAR PAUN 252356Z AUTO 31013KT 10SM CLR 17/11 A2988 RMK AO2 SLP123 T01670106 10172 20122 58028=
 Alaska TAF Map

NOAA's National Weather Service
Alaska Aviation Weather Unit
6930 Sand Lake Road
Anchorage, AK 99502-1845
Disclaimer
Credits
Glossary
Privacy Policy
About Us
Career Opportunities
Contact AAWU Internet Services Site last modified: April, 17th 2012